createdAt,value
2023-05-21T00:01:07.060Z,97.23
2023-05-21T00:03:36.073Z,97.64
2023-05-21T00:06:04.478Z,98.11
2023-05-21T00:08:34.125Z,98.23
2023-05-21T00:11:01.709Z,98.58
2023-05-21T00:13:29.313Z,98.51
2023-05-21T00:15:58.458Z,98.70
2023-05-21T00:18:26.406Z,98.61
2023-05-21T00:20:54.407Z,98.63
2023-05-21T00:23:22.024Z,98.97
2023-05-21T00:25:50.463Z,98.33
2023-05-21T00:28:18.191Z,98.65
2023-05-21T00:30:47.240Z,98.78
2023-05-21T00:33:16.247Z,98.66
2023-05-21T00:35:43.859Z,97.84
2023-05-21T00:38:11.531Z,98.28
2023-05-21T00:40:41.165Z,97.39
2023-05-21T00:43:10.682Z,98.01
2023-05-21T00:45:38.649Z,98.47
2023-05-21T00:48:08.005Z,97.53
2023-05-21T00:50:39.593Z,98.06
2023-05-21T00:53:12.717Z,97.92
2023-05-21T00:55:40.828Z,98.01
2023-05-21T00:58:09.108Z,98.76
2023-05-21T01:00:37.380Z,98.21
2023-05-21T01:03:06.137Z,98.06
2023-05-21T01:05:34.043Z,98.07
2023-05-21T01:08:03.867Z,98.50
2023-05-21T01:10:31.576Z,99.16
2023-05-21T01:12:59.654Z,99.16
2023-05-21T01:15:27.602Z,99.20
2023-05-21T01:17:55.852Z,99.42
2023-05-21T01:20:24.503Z,98.64
2023-05-21T01:22:55.063Z,98.40
2023-05-21T01:25:22.890Z,98.32
2023-05-21T01:27:50.710Z,98.85
2023-05-21T01:30:19.576Z,98.93
2023-05-21T01:32:50.594Z,98.77
2023-05-21T01:35:21.976Z,98.85
2023-05-21T01:37:56.383Z,99.09
2023-05-21T01:40:27.720Z,98.99
2023-05-21T01:42:55.342Z,99.34
2023-05-21T01:45:23.963Z,99.59
2023-05-21T01:47:53.110Z,99.50
2023-05-21T01:50:20.792Z,98.82
2023-05-21T01:52:51.766Z,98.61
2023-05-21T01:55:24.490Z,99.15
2023-05-21T01:57:53.639Z,99.15
2023-05-21T02:00:22.330Z,99.37
2023-05-21T02:02:50.290Z,99.19
2023-05-21T02:05:18.279Z,99.45
2023-05-21T02:07:46.421Z,99.07
2023-05-21T02:10:14.485Z,99.38
2023-05-21T02:12:44.082Z,98.77
2023-05-21T02:15:11.750Z,98.82
2023-05-21T02:17:39.490Z,99.73
2023-05-21T02:20:11.519Z,98.76
2023-05-21T02:22:39.870Z,99.00
2023-05-21T02:25:08.997Z,99.23
2023-05-21T02:27:37.608Z,99.28
2023-05-21T02:30:08.990Z,98.92
2023-05-21T02:32:36.907Z,99.30
2023-05-21T02:35:05.600Z,98.78
2023-05-21T02:37:34.196Z,98.52
2023-05-21T02:40:02.207Z,98.69
2023-05-21T02:42:29.823Z,98.96
2023-05-21T02:44:57.461Z,98.65
2023-05-21T02:47:27.038Z,98.82
2023-05-21T02:49:55.203Z,98.94
2023-05-21T02:52:23.898Z,98.84
2023-05-21T02:54:53.266Z,99.14
2023-05-21T02:57:20.938Z,98.79
2023-05-21T02:59:48.495Z,98.18
2023-05-21T03:02:16.350Z,98.68
2023-05-21T03:04:46.927Z,98.36
2023-05-21T03:07:15.103Z,98.29
2023-05-21T03:09:42.926Z,98.62
2023-05-21T03:12:11.285Z,98.87
2023-05-21T03:14:39.232Z,98.75
2023-05-21T03:17:07.730Z,98.74
2023-05-21T03:19:36.297Z,98.48
2023-05-21T03:22:05.721Z,99.55
2023-05-21T03:24:33.634Z,100.00
2023-05-21T03:27:02.005Z,100.00
2023-05-21T03:29:29.885Z,99.89
2023-05-21T03:31:58.093Z,99.44
2023-05-21T03:34:25.806Z,99.50
2023-05-21T03:36:53.419Z,99.86
2023-05-21T03:39:22.369Z,100.00
2023-05-21T03:41:49.960Z,99.59
2023-05-21T03:44:17.607Z,99.66
2023-05-21T03:46:46.118Z,99.52
2023-05-21T03:49:15.020Z,100.00
2023-05-21T03:51:42.612Z,100.00
2023-05-21T03:54:10.399Z,99.99
2023-05-21T03:56:39.329Z,100.00
2023-05-21T03:59:06.909Z,100.00
2023-05-21T04:01:34.844Z,100.00
2023-05-21T04:04:02.609Z,100.00
2023-05-21T04:06:30.309Z,100.00
2023-05-21T04:08:57.920Z,100.00
2023-05-21T04:11:26.100Z,100.00
2023-05-21T04:13:55.041Z,100.00
2023-05-21T04:16:24.558Z,100.00
2023-05-21T04:18:52.373Z,99.63
2023-05-21T04:21:20.044Z,99.45
2023-05-21T04:23:47.672Z,99.90
2023-05-21T04:26:16.243Z,100.00
2023-05-21T04:28:45.748Z,100.00
2023-05-21T04:31:15.126Z,99.89
2023-05-21T04:33:45.860Z,100.00
2023-05-21T04:36:13.579Z,100.00
2023-05-21T04:38:42.364Z,99.79
2023-05-21T04:41:10.866Z,99.80
2023-05-21T04:43:38.626Z,100.00
2023-05-21T04:46:06.434Z,100.00
2023-05-21T04:48:35.425Z,100.00
2023-05-21T04:51:05.753Z,100.00
2023-05-21T04:53:33.891Z,100.00
2023-05-21T04:56:01.596Z,100.00
2023-05-21T04:58:29.218Z,100.00
2023-05-21T05:00:57.826Z,99.75
2023-05-21T05:03:25.608Z,99.74
2023-05-21T05:05:54.700Z,99.37
2023-05-21T05:08:22.330Z,98.66
2023-05-21T05:10:49.928Z,98.50
2023-05-21T05:13:17.603Z,98.98
2023-05-21T05:15:46.108Z,97.84
2023-05-21T05:18:15.111Z,97.83
2023-05-21T05:20:42.783Z,97.01
2023-05-21T05:23:11.756Z,96.20
2023-05-21T05:25:39.614Z,96.30
2023-05-21T05:28:07.372Z,97.26
2023-05-21T05:30:36.095Z,97.24
2023-05-21T05:33:03.809Z,96.90
2023-05-21T05:35:31.390Z,96.13
2023-05-21T05:37:59.263Z,96.18
2023-05-21T05:40:28.257Z,95.45
2023-05-21T05:42:55.958Z,94.26
2023-05-21T05:45:23.660Z,93.99
2023-05-21T05:47:51.288Z,93.38
2023-05-21T05:50:21.873Z,92.85
2023-05-21T05:52:49.514Z,92.70
2023-05-21T05:55:17.634Z,92.66
2023-05-21T05:57:46.636Z,92.73
2023-05-21T06:00:15.288Z,92.19
2023-05-21T06:02:43.148Z,91.32
2023-05-21T06:05:11.464Z,91.38
2023-05-21T06:07:39.679Z,91.58
2023-05-21T06:10:07.915Z,91.10
2023-05-21T06:12:35.908Z,90.10
2023-05-21T06:15:05.732Z,90.10
2023-05-21T06:17:33.380Z,90.30
2023-05-21T06:20:00.975Z,90.82
2023-05-21T06:22:28.614Z,91.35
2023-05-21T06:24:56.201Z,91.43
2023-05-21T06:27:23.777Z,91.02
2023-05-21T06:29:51.427Z,90.73
2023-05-21T06:32:21.364Z,89.85
2023-05-21T06:34:49.039Z,88.98
2023-05-21T06:37:20.482Z,87.68
2023-05-21T06:39:48.080Z,86.65
2023-05-21T06:42:15.749Z,87.64
2023-05-21T06:44:43.393Z,88.02
2023-05-21T06:47:11.018Z,85.61
2023-05-21T06:49:39.923Z,85.96
2023-05-21T06:52:07.980Z,86.11
2023-05-21T06:54:35.683Z,85.85
2023-05-21T06:57:03.315Z,84.61
2023-05-21T06:59:31.527Z,84.72
2023-05-21T07:01:59.210Z,82.94
2023-05-21T07:04:26.816Z,84.19
2023-05-21T07:06:55.770Z,84.17
2023-05-21T07:09:23.420Z,83.11
2023-05-21T07:11:51.630Z,82.72
2023-05-21T07:14:19.224Z,83.04
2023-05-21T07:16:46.874Z,82.28
2023-05-21T07:19:15.955Z,81.88
2023-05-21T07:21:43.608Z,81.41
2023-05-21T07:24:12.668Z,83.09
2023-05-21T07:26:40.415Z,80.59
2023-05-21T07:29:08.095Z,81.98
2023-05-21T07:31:35.749Z,80.87
2023-05-21T07:34:03.445Z,81.18
2023-05-21T07:36:31.078Z,79.93
2023-05-21T07:38:58.806Z,80.46
2023-05-21T07:41:27.728Z,79.93
2023-05-21T07:43:55.276Z,78.91
2023-05-21T07:46:23.300Z,78.61
2023-05-21T07:48:51.011Z,77.23
2023-05-21T07:51:18.684Z,78.43
2023-05-21T07:53:46.308Z,77.86
2023-05-21T07:56:13.965Z,77.10
2023-05-21T07:58:45.827Z,76.73
2023-05-21T08:01:13.574Z,76.11
2023-05-21T08:03:41.438Z,75.33
2023-05-21T08:06:09.180Z,74.85
2023-05-21T08:08:36.776Z,75.28
2023-05-21T08:11:04.437Z,75.91
2023-05-21T08:13:32.020Z,75.28
2023-05-21T08:16:01.600Z,75.18
2023-05-21T08:18:29.203Z,73.38
2023-05-21T08:20:56.896Z,74.54
2023-05-21T08:23:24.516Z,75.83
2023-05-21T08:25:53.459Z,75.79
2023-05-21T08:28:23.192Z,75.23
2023-05-21T08:30:50.844Z,76.17
2023-05-21T08:33:21.110Z,75.98
2023-05-21T08:35:49.153Z,75.68
2023-05-21T08:38:17.684Z,76.48
2023-05-21T08:40:47.657Z,76.29
2023-05-21T08:43:16.466Z,75.43
2023-05-21T08:45:46.719Z,76.57
2023-05-21T08:48:18.799Z,75.99
2023-05-21T08:50:46.469Z,75.24
2023-05-21T08:53:23.931Z,75.18
2023-05-21T08:55:57.172Z,75.75
2023-05-21T08:58:25.187Z,76.76
2023-05-21T09:00:52.826Z,75.44
2023-05-21T09:03:22.429Z,75.46
2023-05-21T09:05:51.169Z,75.31
2023-05-21T09:08:20.580Z,74.63
2023-05-21T09:10:51.155Z,74.09
2023-05-21T09:13:19.426Z,75.94
2023-05-21T09:15:47.733Z,75.45
2023-05-21T09:18:15.680Z,74.31
2023-05-21T09:20:45.337Z,74.92
2023-05-21T09:23:16.929Z,75.56
2023-05-21T09:25:46.823Z,74.34
2023-05-21T09:28:18.692Z,75.12
2023-05-21T09:30:46.769Z,75.05
2023-05-21T09:33:25.452Z,74.72
2023-05-21T09:35:54.523Z,74.31
2023-05-21T09:38:23.630Z,75.05
2023-05-21T09:40:51.610Z,75.94
2023-05-21T09:43:19.469Z,74.33
2023-05-21T09:45:53.874Z,74.62
2023-05-21T09:48:35.127Z,75.34
2023-05-21T09:51:15.004Z,75.24
2023-05-21T09:53:47.852Z,74.60
2023-05-21T09:56:15.520Z,73.47
2023-05-21T09:58:43.221Z,74.17
2023-05-21T10:01:11.825Z,73.74
2023-05-21T10:03:40.843Z,74.45
2023-05-21T10:06:09.957Z,74.17
2023-05-21T10:08:42.943Z,74.49
2023-05-21T10:11:11.120Z,74.52
2023-05-21T10:13:41.315Z,74.03
2023-05-21T10:16:09.377Z,73.08
2023-05-21T10:18:38.366Z,72.55
2023-05-21T10:21:07.166Z,71.96
2023-05-21T10:23:37.515Z,70.93
2023-05-21T10:26:06.607Z,70.75
2023-05-21T10:28:34.540Z,66.02
2023-05-21T10:31:02.405Z,66.75
2023-05-21T10:33:30.514Z,68.15
2023-05-21T10:35:59.567Z,66.26
2023-05-21T10:38:28.802Z,65.68
2023-05-21T10:40:56.895Z,65.29
2023-05-21T10:43:50.052Z,65.06
2023-05-21T10:46:40.798Z,65.40
2023-05-21T10:49:28.181Z,67.35
2023-05-21T10:52:06.953Z,64.98
2023-05-21T10:55:03.156Z,65.25
2023-05-21T10:57:45.949Z,64.43
2023-05-21T11:00:17.175Z,64.08
2023-05-21T11:02:45.678Z,62.83
2023-05-21T11:05:13.520Z,62.58
2023-05-21T11:07:56.176Z,63.38
2023-05-21T11:10:37.698Z,63.56
2023-05-21T11:13:09.554Z,62.73
2023-05-21T11:16:10.807Z,61.87
2023-05-21T11:19:00.712Z,62.53
2023-05-21T11:21:31.317Z,62.82
2023-05-21T11:24:03.727Z,62.40
2023-05-21T11:26:52.521Z,63.25
2023-05-21T11:29:21.018Z,63.32
2023-05-21T11:32:01.352Z,62.34
2023-05-21T11:34:39.500Z,62.59
2023-05-21T11:37:28.963Z,62.80
2023-05-21T11:39:57.533Z,62.27
2023-05-21T11:42:33.043Z,62.35
2023-05-21T11:45:01.948Z,61.69
2023-05-21T11:47:32.187Z,61.78
2023-05-21T11:50:01.097Z,62.79
2023-05-21T11:52:30.051Z,62.26
2023-05-21T11:54:59.620Z,61.99
2023-05-21T11:57:30.729Z,62.46
2023-05-21T11:59:59.747Z,61.35
2023-05-21T12:02:28.515Z,61.81
2023-05-21T12:05:00.019Z,62.98
2023-05-21T12:07:29.607Z,63.17
2023-05-21T12:09:57.438Z,63.84
2023-05-21T12:12:27.202Z,62.78
2023-05-21T12:14:56.959Z,64.67
2023-05-21T12:17:25.616Z,63.53
2023-05-21T12:19:55.281Z,63.48
2023-05-21T12:22:25.038Z,62.97
2023-05-21T12:24:53.840Z,62.95
2023-05-21T12:27:22.782Z,63.14
2023-05-21T12:29:51.603Z,62.33
2023-05-21T12:32:19.241Z,61.66
2023-05-21T12:34:48.645Z,60.95
2023-05-21T12:37:17.314Z,62.67
2023-05-21T12:39:47.403Z,61.10
2023-05-21T12:42:15.401Z,61.05
2023-05-21T12:44:45.445Z,59.86
2023-05-21T12:47:13.473Z,61.22
2023-05-21T12:49:42.121Z,59.69
2023-05-21T12:52:11.334Z,60.44
2023-05-21T12:54:39.908Z,57.84
2023-05-21T12:57:15.250Z,59.57
2023-05-21T12:59:50.698Z,59.84
2023-05-21T13:02:21.811Z,59.46
2023-05-21T13:04:49.893Z,59.59
2023-05-21T13:07:19.346Z,58.41
2023-05-21T13:09:47.000Z,58.91
2023-05-21T13:12:15.977Z,58.08
2023-05-21T13:14:43.612Z,57.80
2023-05-21T13:17:12.107Z,58.20
2023-05-21T13:19:39.694Z,58.69
2023-05-21T13:22:07.655Z,56.83
2023-05-21T13:24:35.343Z,57.65
2023-05-21T13:27:03.043Z,57.60
2023-05-21T13:29:32.238Z,56.96
2023-05-21T13:31:59.955Z,55.88
2023-05-21T13:34:27.561Z,57.84
2023-05-21T13:36:55.145Z,56.44
2023-05-21T13:39:26.762Z,57.39
2023-05-21T13:41:55.068Z,57.59
2023-05-21T13:44:22.790Z,58.02
2023-05-21T13:46:51.908Z,57.41
2023-05-21T13:49:19.612Z,57.78
2023-05-21T13:51:47.422Z,57.09
2023-05-21T13:54:15.745Z,55.84
2023-05-21T13:56:43.456Z,54.85
2023-05-21T13:59:11.086Z,54.36
2023-05-21T14:01:38.786Z,54.92
2023-05-21T14:04:08.329Z,54.07
2023-05-21T14:06:36.089Z,54.76
2023-05-21T14:09:08.568Z,54.49
2023-05-21T14:11:36.593Z,54.01
2023-05-21T14:14:07.151Z,54.81
2023-05-21T14:16:34.874Z,55.16
2023-05-21T14:19:03.542Z,54.22
2023-05-21T14:21:32.819Z,54.58
2023-05-21T14:24:00.561Z,53.64
2023-05-21T14:26:28.494Z,54.49
2023-05-21T14:28:57.012Z,54.70
2023-05-21T14:31:25.397Z,54.00
2023-05-21T14:33:53.024Z,53.01
2023-05-21T14:36:20.735Z,54.21
2023-05-21T14:38:49.828Z,52.17
2023-05-21T14:41:17.550Z,53.33
2023-05-21T14:43:45.238Z,53.25
2023-05-21T14:46:13.180Z,53.98
2023-05-21T14:48:41.107Z,52.55
2023-05-21T14:51:11.981Z,53.43
2023-05-21T14:53:39.746Z,53.29
2023-05-21T14:56:09.317Z,52.58
2023-05-21T14:58:36.930Z,52.41
2023-05-21T15:01:05.059Z,52.47
2023-05-21T15:03:32.951Z,52.62
2023-05-21T15:06:00.724Z,52.10
2023-05-21T15:08:28.479Z,53.72
2023-05-21T15:10:56.130Z,54.15
2023-05-21T15:13:25.145Z,54.37
2023-05-21T15:15:52.900Z,52.53
2023-05-21T15:18:20.687Z,51.94
2023-05-21T15:20:48.602Z,51.43
2023-05-21T15:23:17.641Z,51.50
2023-05-21T15:25:45.912Z,52.90
2023-05-21T15:28:13.695Z,53.58
2023-05-21T15:30:42.967Z,53.28
2023-05-21T15:33:11.076Z,52.97
2023-05-21T15:35:39.168Z,51.79
2023-05-21T15:38:07.323Z,50.29
2023-05-21T15:40:35.024Z,50.78
2023-05-21T15:43:02.724Z,51.74
2023-05-21T15:45:30.407Z,52.15
2023-05-21T15:47:59.511Z,52.16
2023-05-21T15:50:27.121Z,53.43
2023-05-21T15:52:54.796Z,54.23
2023-05-21T15:55:22.634Z,54.52
2023-05-21T15:57:50.640Z,54.58
2023-05-21T16:00:18.532Z,54.40
2023-05-21T16:02:46.249Z,54.80
2023-05-21T16:05:15.354Z,55.65
2023-05-21T16:07:43.048Z,55.31
2023-05-21T16:10:11.125Z,55.63
2023-05-21T16:12:39.076Z,55.71
2023-05-21T16:15:07.554Z,54.28
2023-05-21T16:17:35.201Z,54.60
2023-05-21T16:20:02.866Z,54.22
2023-05-21T16:22:31.805Z,54.74
2023-05-21T16:24:59.429Z,53.59
2023-05-21T16:27:27.051Z,52.94
2023-05-21T16:29:54.653Z,54.06
2023-05-21T16:32:22.651Z,54.19
2023-05-21T16:34:50.458Z,52.80
2023-05-21T16:37:18.126Z,52.98
2023-05-21T16:39:47.145Z,52.79
2023-05-21T16:42:14.802Z,54.29
2023-05-21T16:44:42.390Z,54.83
2023-05-21T16:47:10.124Z,54.35
2023-05-21T16:49:37.771Z,54.70
2023-05-21T16:52:05.671Z,55.42
2023-05-21T16:54:34.168Z,54.68
2023-05-21T16:57:03.246Z,54.73
2023-05-21T16:59:30.910Z,53.78
2023-05-21T17:01:58.578Z,54.06
2023-05-21T17:04:26.473Z,53.72
2023-05-21T17:06:54.116Z,53.73
2023-05-21T17:09:21.807Z,54.02
2023-05-21T17:11:49.583Z,54.29
2023-05-21T17:14:32.616Z,54.43
2023-05-21T17:17:01.763Z,54.79
2023-05-21T17:19:29.544Z,55.71
2023-05-21T17:21:59.228Z,55.74
2023-05-21T17:24:26.890Z,55.32
2023-05-21T17:26:54.764Z,55.14
2023-05-21T17:29:23.769Z,55.60
2023-05-21T17:31:51.560Z,55.99
2023-05-21T17:34:19.259Z,57.11
2023-05-21T17:36:46.923Z,57.12
2023-05-21T17:39:14.662Z,56.89
2023-05-21T17:41:42.518Z,57.00
2023-05-21T17:44:11.359Z,57.12
2023-05-21T17:46:40.482Z,57.36
2023-05-21T17:49:08.553Z,56.86
2023-05-21T17:51:36.958Z,57.57
2023-05-21T17:54:04.945Z,58.21
2023-05-21T17:56:34.276Z,58.22
2023-05-21T17:59:01.957Z,57.14
2023-05-21T18:01:29.680Z,58.01
2023-05-21T18:03:58.830Z,58.10
2023-05-21T18:06:26.476Z,57.37
2023-05-21T18:08:54.056Z,57.67
2023-05-21T18:11:22.328Z,58.14
2023-05-21T18:13:50.034Z,58.46
2023-05-21T18:16:18.001Z,58.24
2023-05-21T18:18:45.678Z,58.10
2023-05-21T18:21:14.767Z,58.57
2023-05-21T18:23:42.364Z,58.66
2023-05-21T18:26:09.980Z,59.37
2023-05-21T18:28:37.557Z,59.52
2023-05-21T18:31:05.219Z,59.40
2023-05-21T18:33:32.876Z,60.49
2023-05-21T18:36:00.556Z,59.59
2023-05-21T18:38:29.521Z,59.24
2023-05-21T18:40:57.123Z,59.27
2023-05-21T18:43:24.783Z,59.57
2023-05-21T18:45:52.378Z,59.53
2023-05-21T18:48:20.104Z,59.97
2023-05-21T18:50:47.769Z,59.53
2023-05-21T18:53:15.665Z,59.43
2023-05-21T18:55:44.664Z,60.05
2023-05-21T18:58:12.302Z,60.50
2023-05-21T19:00:40.071Z,61.53
2023-05-21T19:03:07.720Z,61.62
2023-05-21T19:05:35.434Z,61.37
2023-05-21T19:08:03.840Z,61.83
2023-05-21T19:10:32.335Z,61.63
2023-05-21T19:13:01.310Z,61.97
2023-05-21T19:15:28.931Z,63.12
2023-05-21T19:17:56.581Z,62.74
2023-05-21T19:20:24.863Z,62.42
2023-05-21T19:22:52.525Z,62.34
2023-05-21T19:25:20.185Z,62.70
2023-05-21T19:27:47.797Z,62.86
2023-05-21T19:30:16.977Z,63.81
2023-05-21T19:32:44.703Z,64.52
2023-05-21T19:35:12.295Z,64.84
2023-05-21T19:37:40.006Z,66.56
2023-05-21T19:40:08.892Z,66.16
2023-05-21T19:42:36.992Z,66.47
2023-05-21T19:45:06.793Z,66.78
2023-05-21T19:47:35.873Z,66.34
2023-05-21T19:50:03.936Z,66.32
2023-05-21T19:52:31.570Z,65.36
2023-05-21T19:55:04.414Z,65.93
2023-05-21T19:57:32.405Z,65.47
2023-05-21T20:00:00.095Z,65.47
2023-05-21T20:02:28.683Z,65.24
2023-05-21T20:04:58.978Z,65.80
2023-05-21T20:07:26.694Z,66.00
2023-05-21T20:09:54.285Z,65.27
2023-05-21T20:12:21.908Z,64.95
2023-05-21T20:14:49.848Z,65.59
2023-05-21T20:17:18.953Z,66.87
2023-05-21T20:19:48.161Z,66.22
2023-05-21T20:22:17.275Z,66.48
2023-05-21T20:24:45.130Z,66.74
2023-05-21T20:27:12.775Z,67.76
2023-05-21T20:29:42.853Z,68.76
2023-05-21T20:32:10.559Z,68.82
2023-05-21T20:34:47.222Z,68.63
2023-05-21T20:37:26.074Z,68.38
2023-05-21T20:39:58.033Z,69.42
2023-05-21T20:42:28.376Z,69.55
2023-05-21T20:44:58.844Z,69.82
2023-05-21T20:47:29.800Z,70.95
2023-05-21T20:49:58.450Z,72.18
2023-05-21T20:52:27.521Z,71.84
2023-05-21T20:54:55.273Z,71.20
2023-05-21T20:57:23.998Z,69.95
2023-05-21T20:59:52.327Z,69.81
2023-05-21T21:02:20.610Z,69.74
2023-05-21T21:04:48.923Z,69.64
2023-05-21T21:07:18.088Z,69.81
2023-05-21T21:09:47.603Z,70.05
2023-05-21T21:12:26.124Z,70.74
2023-05-21T21:14:54.549Z,71.40
2023-05-21T21:17:22.228Z,71.57
2023-05-21T21:19:49.946Z,72.36
2023-05-21T21:22:18.244Z,73.27
2023-05-21T21:24:48.151Z,73.96
2023-05-21T21:27:15.838Z,74.09
2023-05-21T21:29:44.134Z,74.75
2023-05-21T21:32:11.779Z,75.33
2023-05-21T21:34:39.368Z,75.85
2023-05-21T21:37:07.032Z,76.00
2023-05-21T21:39:34.694Z,76.97
2023-05-21T21:42:03.718Z,77.78
2023-05-21T21:44:31.397Z,78.08
2023-05-21T21:46:59.015Z,78.91
2023-05-21T21:49:26.660Z,79.71
2023-05-21T21:51:57.622Z,80.70
2023-05-21T21:54:25.504Z,81.51
2023-05-21T21:56:53.164Z,81.76
2023-05-21T21:59:22.423Z,82.31
2023-05-21T22:01:50.226Z,82.81
2023-05-21T22:04:17.902Z,82.67
2023-05-21T22:06:46.716Z,82.93
2023-05-21T22:09:14.380Z,83.41
2023-05-21T22:11:42.246Z,84.03
2023-05-21T22:14:11.574Z,84.44
2023-05-21T22:16:41.458Z,84.42
2023-05-21T22:19:10.169Z,84.63
2023-05-21T22:21:37.987Z,84.34
2023-05-21T22:24:05.809Z,84.45
2023-05-21T22:26:33.483Z,85.25
2023-05-21T22:29:01.103Z,85.09
2023-05-21T22:31:28.720Z,85.52
2023-05-21T22:33:57.949Z,86.27
2023-05-21T22:36:25.643Z,86.18
2023-05-21T22:38:53.372Z,86.06
2023-05-21T22:41:21.775Z,86.84
2023-05-21T22:43:49.463Z,86.41
2023-05-21T22:46:17.104Z,86.96
2023-05-21T22:48:46.022Z,86.75
2023-05-21T22:51:15.079Z,87.44
2023-05-21T22:53:42.928Z,87.35
2023-05-21T22:56:11.731Z,87.67
2023-05-21T22:58:39.397Z,87.47
2023-05-21T23:01:07.059Z,88.61
2023-05-21T23:03:34.667Z,89.16
2023-05-21T23:06:02.309Z,89.92
2023-05-21T23:08:31.256Z,89.62
2023-05-21T23:10:58.909Z,89.56
2023-05-21T23:13:26.675Z,90.09
2023-05-21T23:15:54.336Z,90.05
2023-05-21T23:18:21.996Z,90.03
2023-05-21T23:20:49.693Z,90.25
2023-05-21T23:23:17.365Z,90.16
2023-05-21T23:25:46.560Z,89.98
2023-05-21T23:28:14.153Z,90.26
2023-05-21T23:30:41.862Z,91.06
2023-05-21T23:33:09.829Z,91.58
2023-05-21T23:35:37.514Z,91.09
2023-05-21T23:38:05.147Z,91.10
2023-05-21T23:40:32.789Z,91.79
2023-05-21T23:43:01.736Z,92.12
2023-05-21T23:45:29.425Z,92.45
2023-05-21T23:47:57.093Z,92.59
2023-05-21T23:50:25.926Z,92.83
2023-05-21T23:52:53.599Z,93.90
2023-05-21T23:55:21.253Z,94.09
2023-05-21T23:57:48.865Z,94.58
